Chignik Lagoon, Alaska
Current Conditions -  °F | °C
As of 5:36 AM on Thursday 29 Jan 2015 (Local Time) from PAJC Reporting Station
Overcast Overcast  
Wind Chill: 27°   Ceiling: 3100
Heat Index: 34°   Visibility: 5mi
Dew Point: 27°   Wind: 8mph
Humidity: 75%   Direction: 230°SW
Pressure: 29.95"   Gusts: NA
Location:  56.28°N, 158.51°W
Report Text: PAJC 291436Z AUTO 23007KT 5SM OVC031 01/M03 A2995 RMK AO1
Loading
Personal Weather Stations






























Interactive Weather Map New forecast layout! Learn more

10-Day Weather Forecast

Advertisements
Track Severe Weather on mobile